sensor_id;sensor_type;location;lat;lon;timestamp;P1;durP1;ratioP1;P2;durP2;ratioP2
53391;SDS011;41667;51.922;8.850;2023-04-03T00:00:44;2.83;;;1.40;;
53391;SDS011;41667;51.922;8.850;2023-04-03T00:03:09;1.38;;;1.27;;
53391;SDS011;41667;51.922;8.850;2023-04-03T00:05:35;1.73;;;1.60;;
53391;SDS011;41667;51.922;8.850;2023-04-03T00:08:00;8.73;;;1.52;;
53391;SDS011;41667;51.922;8.850;2023-04-03T00:10:26;1.30;;;1.08;;
53391;SDS011;41667;51.922;8.850;2023-04-03T00:12:52;5.25;;;1.42;;
53391;SDS011;41667;51.922;8.850;2023-04-03T00:15:17;3.78;;;1.48;;
53391;SDS011;41667;51.922;8.850;2023-04-03T00:17:42;2.15;;;1.17;;
53391;SDS011;41667;51.922;8.850;2023-04-03T00:20:07;2.67;;;1.30;;
53391;SDS011;41667;51.922;8.850;2023-04-03T00:22:32;2.90;;;1.30;;
53391;SDS011;41667;51.922;8.850;2023-04-03T00:24:57;0.97;;;0.90;;
53391;SDS011;41667;51.922;8.850;2023-04-03T00:27:23;2.03;;;1.27;;
53391;SDS011;41667;51.922;8.850;2023-04-03T00:29:48;2.90;;;1.20;;
53391;SDS011;41667;51.922;8.850;2023-04-03T00:32:13;8.32;;;1.77;;
53391;SDS011;41667;51.922;8.850;2023-04-03T00:34:38;2.88;;;1.40;;
53391;SDS011;41667;51.922;8.850;2023-04-03T00:37:03;2.17;;;1.98;;
53391;SDS011;41667;51.922;8.850;2023-04-03T00:39:28;4.85;;;1.48;;
53391;SDS011;41667;51.922;8.850;2023-04-03T00:41:53;3.08;;;1.55;;
53391;SDS011;41667;51.922;8.850;2023-04-03T00:44:22;5.03;;;1.97;;
53391;SDS011;41667;51.922;8.850;2023-04-03T00:47:05;1.40;;;1.17;;
53391;SDS011;41667;51.922;8.850;2023-04-03T00:49:30;1.25;;;1.20;;
53391;SDS011;41667;51.922;8.850;2023-04-03T00:51:56;3.15;;;1.45;;
53391;SDS011;41667;51.922;8.850;2023-04-03T00:54:22;2.55;;;1.50;;
53391;SDS011;41667;51.922;8.850;2023-04-03T00:56:47;4.33;;;1.40;;
53391;SDS011;41667;51.922;8.850;2023-04-03T00:59:15;1.88;;;1.10;;
53391;SDS011;41667;51.922;8.850;2023-04-03T01:01:41;5.40;;;1.67;;
53391;SDS011;41667;51.922;8.850;2023-04-03T01:04:24;2.70;;;1.52;;
53391;SDS011;41667;51.922;8.850;2023-04-03T01:06:51;2.20;;;1.48;;
53391;SDS011;41667;51.922;8.850;2023-04-03T01:09:16;2.33;;;1.50;;
53391;SDS011;41667;51.922;8.850;2023-04-03T01:11:42;4.80;;;2.20;;
53391;SDS011;41667;51.922;8.850;2023-04-03T01:14:07;5.57;;;1.27;;
53391;SDS011;41667;51.922;8.850;2023-04-03T01:16:32;7.63;;;1.60;;
53391;SDS011;41667;51.922;8.850;2023-04-03T01:18:57;1.75;;;1.55;;
53391;SDS011;41667;51.922;8.850;2023-04-03T01:24:05;3.83;;;1.60;;
53391;SDS011;41667;51.922;8.850;2023-04-03T01:26:33;1.58;;;1.15;;
53391;SDS011;41667;51.922;8.850;2023-04-03T01:29:00;2.65;;;1.10;;
53391;SDS011;41667;51.922;8.850;2023-04-03T01:31:27;3.45;;;1.20;;
53391;SDS011;41667;51.922;8.850;2023-04-03T01:33:53;2.83;;;0.95;;
53391;SDS011;41667;51.922;8.850;2023-04-03T01:36:19;2.38;;;1.40;;
53391;SDS011;41667;51.922;8.850;2023-04-03T01:38:45;1.42;;;1.30;;
53391;SDS011;41667;51.922;8.850;2023-04-03T01:41:10;4.22;;;1.42;;
53391;SDS011;41667;51.922;8.850;2023-04-03T01:43:35;2.97;;;1.40;;
53391;SDS011;41667;51.922;8.850;2023-04-03T01:46:00;1.50;;;1.40;;
53391;SDS011;41667;51.922;8.850;2023-04-03T01:48:26;3.47;;;1.88;;
53391;SDS011;41667;51.922;8.850;2023-04-03T01:50:51;1.55;;;1.33;;
53391;SDS011;41667;51.922;8.850;2023-04-03T01:53:16;3.60;;;1.70;;
53391;SDS011;41667;51.922;8.850;2023-04-03T01:55:41;2.90;;;1.40;;
53391;SDS011;41667;51.922;8.850;2023-04-03T01:58:06;4.15;;;2.08;;
53391;SDS011;41667;51.922;8.850;2023-04-03T02:00:31;6.27;;;1.40;;
53391;SDS011;41667;51.922;8.850;2023-04-03T02:02:57;4.65;;;1.10;;
53391;SDS011;41667;51.922;8.850;2023-04-03T02:05:22;5.30;;;1.40;;
53391;SDS011;41667;51.922;8.850;2023-04-03T02:07:47;3.53;;;1.25;;
53391;SDS011;41667;51.922;8.850;2023-04-03T02:10:12;2.67;;;1.25;;
53391;SDS011;41667;51.922;8.850;2023-04-03T02:12:38;2.65;;;1.58;;
53391;SDS011;41667;51.922;8.850;2023-04-03T02:15:03;1.50;;;1.40;;
53391;SDS011;41667;51.922;8.850;2023-04-03T02:17:28;1.85;;;1.20;;
53391;SDS011;41667;51.922;8.850;2023-04-03T02:19:53;1.70;;;1.35;;
53391;SDS011;41667;51.922;8.850;2023-04-03T02:22:19;5.20;;;1.50;;
53391;SDS011;41667;51.922;8.850;2023-04-03T02:24:45;3.85;;;1.77;;
53391;SDS011;41667;51.922;8.850;2023-04-03T02:27:10;4.33;;;1.87;;
53391;SDS011;41667;51.922;8.850;2023-04-03T02:29:35;5.80;;;1.48;;
53391;SDS011;41667;51.922;8.850;2023-04-03T02:32:00;1.20;;;1.13;;
53391;SDS011;41667;51.922;8.850;2023-04-03T02:34:25;3.57;;;1.23;;
53391;SDS011;41667;51.922;8.850;2023-04-03T02:36:50;1.27;;;1.17;;
53391;SDS011;41667;51.922;8.850;2023-04-03T02:39:16;4.22;;;1.40;;
53391;SDS011;41667;51.922;8.850;2023-04-03T02:41:41;5.93;;;1.48;;
53391;SDS011;41667;51.922;8.850;2023-04-03T02:44:06;2.33;;;1.60;;
53391;SDS011;41667;51.922;8.850;2023-04-03T02:46:32;1.20;;;1.10;;
53391;SDS011;41667;51.922;8.850;2023-04-03T02:48:57;4.97;;;1.60;;
53391;SDS011;41667;51.922;8.850;2023-04-03T02:51:23;8.18;;;1.75;;
53391;SDS011;41667;51.922;8.850;2023-04-03T02:53:48;3.92;;;2.08;;
53391;SDS011;41667;51.922;8.850;2023-04-03T02:56:13;4.55;;;1.90;;
53391;SDS011;41667;51.922;8.850;2023-04-03T02:58:39;1.73;;;1.63;;
53391;SDS011;41667;51.922;8.850;2023-04-03T03:01:04;2.90;;;1.67;;
53391;SDS011;41667;51.922;8.850;2023-04-03T03:03:29;3.22;;;1.80;;
53391;SDS011;41667;51.922;8.850;2023-04-03T03:06:04;9.45;;;1.95;;
53391;SDS011;41667;51.922;8.850;2023-04-03T03:08:30;3.17;;;1.23;;
53391;SDS011;41667;51.922;8.850;2023-04-03T03:10:55;1.30;;;1.27;;
53391;SDS011;41667;51.922;8.850;2023-04-03T03:13:20;7.45;;;1.65;;
53391;SDS011;41667;51.922;8.850;2023-04-03T03:15:45;4.47;;;1.90;;
53391;SDS011;41667;51.922;8.850;2023-04-03T03:18:10;3.28;;;1.40;;
53391;SDS011;41667;51.922;8.850;2023-04-03T03:20:36;4.15;;;1.45;;
53391;SDS011;41667;51.922;8.850;2023-04-03T03:23:01;2.70;;;1.55;;
53391;SDS011;41667;51.922;8.850;2023-04-03T03:25:26;1.17;;;0.93;;
53391;SDS011;41667;51.922;8.850;2023-04-03T03:27:51;3.85;;;1.40;;
53391;SDS011;41667;51.922;8.850;2023-04-03T03:30:16;2.22;;;1.60;;
53391;SDS011;41667;51.922;8.850;2023-04-03T03:32:41;3.00;;;1.45;;
53391;SDS011;41667;51.922;8.850;2023-04-03T03:35:06;6.45;;;1.98;;
53391;SDS011;41667;51.922;8.850;2023-04-03T03:37:32;2.78;;;1.17;;
53391;SDS011;41667;51.922;8.850;2023-04-03T03:39:57;7.47;;;1.77;;
53391;SDS011;41667;51.922;8.850;2023-04-03T03:42:22;1.70;;;1.37;;
53391;SDS011;41667;51.922;8.850;2023-04-03T03:44:47;2.80;;;1.60;;
53391;SDS011;41667;51.922;8.850;2023-04-03T03:47:12;4.13;;;1.63;;
53391;SDS011;41667;51.922;8.850;2023-04-03T03:49:37;6.00;;;2.03;;
53391;SDS011;41667;51.922;8.850;2023-04-03T03:52:03;2.35;;;1.60;;
53391;SDS011;41667;51.922;8.850;2023-04-03T03:54:28;2.70;;;1.58;;
53391;SDS011;41667;51.922;8.850;2023-04-03T03:56:53;1.30;;;1.20;;
53391;SDS011;41667;51.922;8.850;2023-04-03T03:59:18;2.47;;;1.38;;
53391;SDS011;41667;51.922;8.850;2023-04-03T04:01:43;2.07;;;1.50;;
53391;SDS011;41667;51.922;8.850;2023-04-03T04:04:08;2.65;;;1.38;;
53391;SDS011;41667;51.922;8.850;2023-04-03T04:06:33;3.05;;;1.67;;
53391;SDS011;41667;51.922;8.850;2023-04-03T04:08:58;1.80;;;1.70;;
53391;SDS011;41667;51.922;8.850;2023-04-03T04:11:24;2.65;;;1.63;;
53391;SDS011;41667;51.922;8.850;2023-04-03T04:13:49;1.98;;;1.30;;
53391;SDS011;41667;51.922;8.850;2023-04-03T04:16:15;1.90;;;1.50;;
53391;SDS011;41667;51.922;8.850;2023-04-03T04:18:40;1.17;;;1.17;;
53391;SDS011;41667;51.922;8.850;2023-04-03T04:21:06;1.77;;;1.50;;
53391;SDS011;41667;51.922;8.850;2023-04-03T04:23:31;6.10;;;2.10;;
53391;SDS011;41667;51.922;8.850;2023-04-03T04:25:56;5.65;;;1.77;;
53391;SDS011;41667;51.922;8.850;2023-04-03T04:28:22;2.25;;;1.88;;
53391;SDS011;41667;51.922;8.850;2023-04-03T04:30:47;2.70;;;1.88;;
53391;SDS011;41667;51.922;8.850;2023-04-03T04:33:12;1.60;;;1.50;;
53391;SDS011;41667;51.922;8.850;2023-04-03T04:35:38;1.83;;;1.42;;
53391;SDS011;41667;51.922;8.850;2023-04-03T04:38:03;2.75;;;1.55;;
53391;SDS011;41667;51.922;8.850;2023-04-03T04:40:29;2.00;;;1.80;;
53391;SDS011;41667;51.922;8.850;2023-04-03T04:42:54;2.50;;;1.53;;
53391;SDS011;41667;51.922;8.850;2023-04-03T04:45:20;8.02;;;1.90;;
53391;SDS011;41667;51.922;8.850;2023-04-03T04:47:45;6.57;;;1.90;;
53391;SDS011;41667;51.922;8.850;2023-04-03T04:50:10;1.25;;;1.25;;
53391;SDS011;41667;51.922;8.850;2023-04-03T04:52:36;3.80;;;1.75;;
53391;SDS011;41667;51.922;8.850;2023-04-03T04:55:01;2.95;;;1.52;;
53391;SDS011;41667;51.922;8.850;2023-04-03T04:57:27;1.33;;;1.20;;
53391;SDS011;41667;51.922;8.850;2023-04-03T04:59:52;4.90;;;2.00;;
53391;SDS011;41667;51.922;8.850;2023-04-03T05:02:17;2.85;;;1.52;;
53391;SDS011;41667;51.922;8.850;2023-04-03T05:04:42;4.65;;;1.38;;
53391;SDS011;41667;51.922;8.850;2023-04-03T05:07:07;2.78;;;1.55;;
53391;SDS011;41667;51.922;8.850;2023-04-03T05:09:32;2.10;;;1.60;;
53391;SDS011;41667;51.922;8.850;2023-04-03T05:11:58;3.70;;;1.60;;
53391;SDS011;41667;51.922;8.850;2023-04-03T05:14:23;8.20;;;1.80;;
53391;SDS011;41667;51.922;8.850;2023-04-03T05:16:48;3.70;;;2.33;;
53391;SDS011;41667;51.922;8.850;2023-04-03T05:19:13;4.13;;;1.73;;
53391;SDS011;41667;51.922;8.850;2023-04-03T05:21:39;2.72;;;1.85;;
53391;SDS011;41667;51.922;8.850;2023-04-03T05:24:04;2.42;;;1.63;;
53391;SDS011;41667;51.922;8.850;2023-04-03T05:26:30;3.05;;;1.40;;
53391;SDS011;41667;51.922;8.850;2023-04-03T05:28:55;3.83;;;2.03;;
53391;SDS011;41667;51.922;8.850;2023-04-03T05:31:20;1.73;;;1.60;;
53391;SDS011;41667;51.922;8.850;2023-04-03T05:33:45;6.40;;;1.90;;
53391;SDS011;41667;51.922;8.850;2023-04-03T05:36:11;1.73;;;1.63;;
53391;SDS011;41667;51.922;8.850;2023-04-03T05:38:37;3.78;;;1.83;;
53391;SDS011;41667;51.922;8.850;2023-04-03T05:41:03;5.00;;;1.67;;
53391;SDS011;41667;51.922;8.850;2023-04-03T05:43:28;5.72;;;2.03;;
53391;SDS011;41667;51.922;8.850;2023-04-03T05:45:53;1.60;;;1.30;;
53391;SDS011;41667;51.922;8.850;2023-04-03T05:48:18;1.92;;;1.80;;
53391;SDS011;41667;51.922;8.850;2023-04-03T05:50:43;3.65;;;1.58;;
53391;SDS011;41667;51.922;8.850;2023-04-03T05:53:20;6.00;;;1.65;;
53391;SDS011;41667;51.922;8.850;2023-04-03T05:55:45;5.15;;;2.22;;
53391;SDS011;41667;51.922;8.850;2023-04-03T05:58:11;8.63;;;1.88;;
53391;SDS011;41667;51.922;8.850;2023-04-03T06:00:36;2.05;;;1.85;;
53391;SDS011;41667;51.922;8.850;2023-04-03T06:03:01;2.60;;;1.77;;
53391;SDS011;41667;51.922;8.850;2023-04-03T06:05:26;5.40;;;1.40;;
53391;SDS011;41667;51.922;8.850;2023-04-03T06:07:51;6.40;;;1.98;;
53391;SDS011;41667;51.922;8.850;2023-04-03T06:10:17;2.57;;;1.50;;
53391;SDS011;41667;51.922;8.850;2023-04-03T06:12:42;2.83;;;1.88;;
53391;SDS011;41667;51.922;8.850;2023-04-03T06:15:07;6.13;;;1.50;;
53391;SDS011;41667;51.922;8.850;2023-04-03T06:17:34;8.52;;;1.73;;
53391;SDS011;41667;51.922;8.850;2023-04-03T06:20:00;3.63;;;2.13;;
53391;SDS011;41667;51.922;8.850;2023-04-03T06:22:25;4.82;;;1.65;;
53391;SDS011;41667;51.922;8.850;2023-04-03T06:24:55;10.60;;;2.13;;
53391;SDS011;41667;51.922;8.850;2023-04-03T06:27:20;3.47;;;1.48;;
53391;SDS011;41667;51.922;8.850;2023-04-03T06:29:45;4.22;;;1.98;;
53391;SDS011;41667;51.922;8.850;2023-04-03T06:32:10;3.42;;;2.15;;
53391;SDS011;41667;51.922;8.850;2023-04-03T06:34:35;4.07;;;2.05;;
53391;SDS011;41667;51.922;8.850;2023-04-03T06:37:00;2.65;;;1.83;;
53391;SDS011;41667;51.922;8.850;2023-04-03T06:39:26;3.33;;;1.60;;
53391;SDS011;41667;51.922;8.850;2023-04-03T06:41:52;2.28;;;1.42;;
53391;SDS011;41667;51.922;8.850;2023-04-03T06:44:17;2.45;;;1.80;;
53391;SDS011;41667;51.922;8.850;2023-04-03T06:46:43;6.05;;;1.58;;
53391;SDS011;41667;51.922;8.850;2023-04-03T06:49:08;6.03;;;1.52;;
53391;SDS011;41667;51.922;8.850;2023-04-03T06:51:34;4.00;;;1.95;;
53391;SDS011;41667;51.922;8.850;2023-04-03T06:54:00;6.20;;;1.52;;
53391;SDS011;41667;51.922;8.850;2023-04-03T06:56:26;5.97;;;1.42;;
53391;SDS011;41667;51.922;8.850;2023-04-03T06:58:51;3.53;;;1.67;;
53391;SDS011;41667;51.922;8.850;2023-04-03T07:01:19;3.55;;;1.70;;
53391;SDS011;41667;51.922;8.850;2023-04-03T07:03:44;5.28;;;1.42;;
53391;SDS011;41667;51.922;8.850;2023-04-03T07:06:11;2.58;;;1.60;;
53391;SDS011;41667;51.922;8.850;2023-04-03T07:08:37;5.57;;;1.15;;
53391;SDS011;41667;51.922;8.850;2023-04-03T07:11:02;4.60;;;1.75;;
53391;SDS011;41667;51.922;8.850;2023-04-03T07:13:27;2.67;;;1.50;;
53391;SDS011;41667;51.922;8.850;2023-04-03T07:15:52;6.15;;;1.20;;
53391;SDS011;41667;51.922;8.850;2023-04-03T07:18:18;4.05;;;1.27;;
53391;SDS011;41667;51.922;8.850;2023-04-03T07:20:43;4.90;;;1.25;;
53391;SDS011;41667;51.922;8.850;2023-04-03T07:23:08;1.92;;;1.00;;
53391;SDS011;41667;51.922;8.850;2023-04-03T07:25:36;4.57;;;1.80;;
53391;SDS011;41667;51.922;8.850;2023-04-03T07:28:01;4.03;;;1.25;;
53391;SDS011;41667;51.922;8.850;2023-04-03T07:30:26;4.93;;;1.10;;
53391;SDS011;41667;51.922;8.850;2023-04-03T07:32:52;1.30;;;1.20;;
53391;SDS011;41667;51.922;8.850;2023-04-03T07:35:17;3.22;;;1.60;;
53391;SDS011;41667;51.922;8.850;2023-04-03T07:37:42;3.22;;;1.08;;
53391;SDS011;41667;51.922;8.850;2023-04-03T07:40:07;1.53;;;0.87;;
53391;SDS011;41667;51.922;8.850;2023-04-03T07:42:33;3.97;;;1.23;;
53391;SDS011;41667;51.922;8.850;2023-04-03T07:44:58;2.25;;;1.13;;
53391;SDS011;41667;51.922;8.850;2023-04-03T07:47:24;1.38;;;1.08;;
53391;SDS011;41667;51.922;8.850;2023-04-03T07:49:49;4.53;;;0.90;;
53391;SDS011;41667;51.922;8.850;2023-04-03T07:52:14;0.90;;;0.90;;
53391;SDS011;41667;51.922;8.850;2023-04-03T07:54:40;3.33;;;1.75;;
53391;SDS011;41667;51.922;8.850;2023-04-03T07:57:05;3.15;;;1.30;;
53391;SDS011;41667;51.922;8.850;2023-04-03T07:59:31;0.95;;;0.90;;
53391;SDS011;41667;51.922;8.850;2023-04-03T08:01:56;1.10;;;1.00;;
53391;SDS011;41667;51.922;8.850;2023-04-03T08:04:21;1.55;;;1.13;;
53391;SDS011;41667;51.922;8.850;2023-04-03T08:06:47;6.43;;;1.20;;
53391;SDS011;41667;51.922;8.850;2023-04-03T08:09:12;2.45;;;1.27;;
53391;SDS011;41667;51.922;8.850;2023-04-03T08:11:39;3.20;;;1.35;;
53391;SDS011;41667;51.922;8.850;2023-04-03T08:14:04;1.80;;;1.70;;
53391;SDS011;41667;51.922;8.850;2023-04-03T08:16:29;3.53;;;1.30;;
53391;SDS011;41667;51.922;8.850;2023-04-03T08:18:55;1.07;;;0.90;;
53391;SDS011;41667;51.922;8.850;2023-04-03T08:21:20;0.90;;;0.80;;
53391;SDS011;41667;51.922;8.850;2023-04-03T08:23:47;1.20;;;1.20;;
53391;SDS011;41667;51.922;8.850;2023-04-03T08:26:14;2.03;;;1.00;;
53391;SDS011;41667;51.922;8.850;2023-04-03T08:28:39;2.95;;;0.98;;
53391;SDS011;41667;51.922;8.850;2023-04-03T08:31:06;6.63;;;1.25;;
53391;SDS011;41667;51.922;8.850;2023-04-03T08:33:32;1.45;;;1.20;;
53391;SDS011;41667;51.922;8.850;2023-04-03T08:35:57;1.58;;;0.70;;
53391;SDS011;41667;51.922;8.850;2023-04-03T08:38:22;1.55;;;0.60;;
53391;SDS011;41667;51.922;8.850;2023-04-03T08:40:47;1.45;;;1.38;;
53391;SDS011;41667;51.922;8.850;2023-04-03T08:43:27;3.10;;;1.10;;
53391;SDS011;41667;51.922;8.850;2023-04-03T08:45:55;1.70;;;1.23;;
53391;SDS011;41667;51.922;8.850;2023-04-03T08:48:39;1.83;;;1.15;;
53391;SDS011;41667;51.922;8.850;2023-04-03T08:51:11;0.90;;;0.82;;
53391;SDS011;41667;51.922;8.850;2023-04-03T08:53:40;2.05;;;0.95;;
53391;SDS011;41667;51.922;8.850;2023-04-03T08:56:08;0.80;;;0.80;;
53391;SDS011;41667;51.922;8.850;2023-04-03T08:58:41;3.28;;;1.20;;
53391;SDS011;41667;51.922;8.850;2023-04-03T09:01:17;2.58;;;0.98;;
53391;SDS011;41667;51.922;8.850;2023-04-03T09:03:43;0.90;;;0.90;;
53391;SDS011;41667;51.922;8.850;2023-04-03T09:06:22;3.17;;;1.20;;
53391;SDS011;41667;51.922;8.850;2023-04-03T09:08:50;1.73;;;1.02;;
53391;SDS011;41667;51.922;8.850;2023-04-03T09:11:25;4.15;;;1.25;;
53391;SDS011;41667;51.922;8.850;2023-04-03T09:13:57;3.60;;;1.33;;
53391;SDS011;41667;51.922;8.850;2023-04-03T09:16:30;1.25;;;1.00;;
53391;SDS011;41667;51.922;8.850;2023-04-03T09:19:13;2.22;;;0.85;;
53391;SDS011;41667;51.922;8.850;2023-04-03T09:21:40;4.05;;;0.90;;
53391;SDS011;41667;51.922;8.850;2023-04-03T09:24:07;1.55;;;0.95;;
53391;SDS011;41667;51.922;8.850;2023-04-03T09:26:48;1.67;;;1.63;;
53391;SDS011;41667;51.922;8.850;2023-04-03T09:29:17;1.70;;;0.98;;
53391;SDS011;41667;51.922;8.850;2023-04-03T09:31:44;1.05;;;0.70;;
53391;SDS011;41667;51.922;8.850;2023-04-03T09:36:49;0.80;;;0.80;;
53391;SDS011;41667;51.922;8.850;2023-04-03T09:39:17;2.00;;;1.45;;
53391;SDS011;41667;51.922;8.850;2023-04-03T09:41:54;3.25;;;0.90;;
53391;SDS011;41667;51.922;8.850;2023-04-03T09:44:21;2.97;;;1.25;;
53391;SDS011;41667;51.922;8.850;2023-04-03T09:46:46;3.72;;;1.27;;
53391;SDS011;41667;51.922;8.850;2023-04-03T09:49:12;6.22;;;1.27;;
53391;SDS011;41667;51.922;8.850;2023-04-03T09:51:37;1.08;;;0.93;;
53391;SDS011;41667;51.922;8.850;2023-04-03T09:56:50;1.80;;;0.90;;
53391;SDS011;41667;51.922;8.850;2023-04-03T09:59:16;7.35;;;1.60;;
53391;SDS011;41667;51.922;8.850;2023-04-03T10:01:42;1.73;;;0.90;;
53391;SDS011;41667;51.922;8.850;2023-04-03T10:04:12;3.60;;;1.08;;
53391;SDS011;41667;51.922;8.850;2023-04-03T10:06:55;3.00;;;0.70;;
53391;SDS011;41667;51.922;8.850;2023-04-03T10:09:27;4.10;;;0.88;;
53391;SDS011;41667;51.922;8.850;2023-04-03T10:11:57;0.88;;;0.88;;
53391;SDS011;41667;51.922;8.850;2023-04-03T10:14:22;0.82;;;0.82;;
53391;SDS011;41667;51.922;8.850;2023-04-03T10:16:48;2.58;;;0.90;;
53391;SDS011;41667;51.922;8.850;2023-04-03T10:19:23;2.20;;;0.98;;
53391;SDS011;41667;51.922;8.850;2023-04-03T10:21:54;2.13;;;0.77;;
53391;SDS011;41667;51.922;8.850;2023-04-03T10:24:21;0.68;;;0.68;;
53391;SDS011;41667;51.922;8.850;2023-04-03T10:26:57;2.38;;;0.95;;
53391;SDS011;41667;51.922;8.850;2023-04-03T10:34:30;2.70;;;0.93;;
53391;SDS011;41667;51.922;8.850;2023-04-03T10:37:12;1.35;;;0.90;;
53391;SDS011;41667;51.922;8.850;2023-04-03T10:39:51;2.42;;;0.77;;
53391;SDS011;41667;51.922;8.850;2023-04-03T10:42:19;1.58;;;1.10;;
53391;SDS011;41667;51.922;8.850;2023-04-03T10:47:32;3.00;;;0.73;;
53391;SDS011;41667;51.922;8.850;2023-04-03T10:52:50;1.27;;;1.08;;
53391;SDS011;41667;51.922;8.850;2023-04-03T10:57:52;3.30;;;1.05;;
53391;SDS011;41667;51.922;8.850;2023-04-03T11:00:20;1.10;;;0.60;;
53391;SDS011;41667;51.922;8.850;2023-04-03T11:02:56;1.90;;;1.38;;
53391;SDS011;41667;51.922;8.850;2023-04-03T11:08:24;1.05;;;0.88;;
53391;SDS011;41667;51.922;8.850;2023-04-03T11:10:51;0.95;;;0.70;;
53391;SDS011;41667;51.922;8.850;2023-04-03T11:16:03;4.22;;;0.90;;
53391;SDS011;41667;51.922;8.850;2023-04-03T11:18:37;1.88;;;0.88;;
53391;SDS011;41667;51.922;8.850;2023-04-03T11:21:21;6.18;;;0.95;;
53391;SDS011;41667;51.922;8.850;2023-04-03T11:23:47;3.72;;;0.95;;
53391;SDS011;41667;51.922;8.850;2023-04-03T11:26:14;0.97;;;0.53;;
53391;SDS011;41667;51.922;8.850;2023-04-03T11:28:39;1.75;;;0.80;;
53391;SDS011;41667;51.922;8.850;2023-04-03T11:36:06;2.70;;;1.02;;
53391;SDS011;41667;51.922;8.850;2023-04-03T11:38:33;1.13;;;0.90;;
53391;SDS011;41667;51.922;8.850;2023-04-03T11:41:01;3.03;;;1.05;;
53391;SDS011;41667;51.922;8.850;2023-04-03T11:43:28;1.73;;;0.70;;
53391;SDS011;41667;51.922;8.850;2023-04-03T11:45:55;1.38;;;1.17;;
53391;SDS011;41667;51.922;8.850;2023-04-03T11:50:52;1.20;;;0.90;;
53391;SDS011;41667;51.922;8.850;2023-04-03T11:53:25;4.93;;;1.00;;
53391;SDS011;41667;51.922;8.850;2023-04-03T11:55:53;3.10;;;0.88;;
53391;SDS011;41667;51.922;8.850;2023-04-03T11:58:26;8.93;;;1.02;;
53391;SDS011;41667;51.922;8.850;2023-04-03T12:01:05;2.10;;;0.80;;
53391;SDS011;41667;51.922;8.850;2023-04-03T12:13:35;1.25;;;0.80;;
53391;SDS011;41667;51.922;8.850;2023-04-03T12:16:00;3.60;;;1.13;;
53391;SDS011;41667;51.922;8.850;2023-04-03T12:18:36;3.03;;;0.93;;
53391;SDS011;41667;51.922;8.850;2023-04-03T12:21:04;1.25;;;1.00;;
53391;SDS011;41667;51.922;8.850;2023-04-03T12:23:31;1.50;;;0.90;;
53391;SDS011;41667;51.922;8.850;2023-04-03T12:26:01;2.45;;;0.63;;
53391;SDS011;41667;51.922;8.850;2023-04-03T12:28:29;2.17;;;0.90;;
53391;SDS011;41667;51.922;8.850;2023-04-03T12:30:54;1.17;;;1.17;;
53391;SDS011;41667;51.922;8.850;2023-04-03T12:33:32;2.05;;;0.82;;
53391;SDS011;41667;51.922;8.850;2023-04-03T12:36:07;0.82;;;0.70;;
53391;SDS011;41667;51.922;8.850;2023-04-03T12:46:12;0.95;;;0.90;;
53391;SDS011;41667;51.922;8.850;2023-04-03T12:48:48;0.70;;;0.70;;
53391;SDS011;41667;51.922;8.850;2023-04-03T12:51:56;1.77;;;1.00;;
53391;SDS011;41667;51.922;8.850;2023-04-03T12:54:03;1.02;;;0.70;;
53391;SDS011;41667;51.922;8.850;2023-04-03T12:56:30;1.85;;;0.80;;
53391;SDS011;41667;51.922;8.850;2023-04-03T12:59:12;2.17;;;1.00;;
53391;SDS011;41667;51.922;8.850;2023-04-03T13:01:37;0.98;;;0.90;;
53391;SDS011;41667;51.922;8.850;2023-04-03T13:04:02;1.60;;;1.07;;
53391;SDS011;41667;51.922;8.850;2023-04-03T13:06:35;3.10;;;0.95;;
53391;SDS011;41667;51.922;8.850;2023-04-03T13:09:02;2.22;;;1.05;;
53391;SDS011;41667;51.922;8.850;2023-04-03T13:11:36;4.68;;;1.10;;
53391;SDS011;41667;51.922;8.850;2023-04-03T13:14:12;0.82;;;0.70;;
53391;SDS011;41667;51.922;8.850;2023-04-03T13:16:39;1.60;;;1.15;;
53391;SDS011;41667;51.922;8.850;2023-04-03T13:19:06;0.77;;;0.77;;
53391;SDS011;41667;51.922;8.850;2023-04-03T13:21:32;2.10;;;0.73;;
53391;SDS011;41667;51.922;8.850;2023-04-03T13:23:59;1.13;;;1.02;;
53391;SDS011;41667;51.922;8.850;2023-04-03T13:26:26;1.65;;;1.05;;
53391;SDS011;41667;51.922;8.850;2023-04-03T13:28:53;1.33;;;1.02;;
53391;SDS011;41667;51.922;8.850;2023-04-03T13:31:25;0.60;;;0.60;;
53391;SDS011;41667;51.922;8.850;2023-04-03T13:34:09;1.33;;;1.23;;
53391;SDS011;41667;51.922;8.850;2023-04-03T13:36:37;1.75;;;1.25;;
53391;SDS011;41667;51.922;8.850;2023-04-03T13:39:04;1.58;;;0.93;;
53391;SDS011;41667;51.922;8.850;2023-04-03T13:41:34;3.97;;;1.13;;
53391;SDS011;41667;51.922;8.850;2023-04-03T13:44:24;1.33;;;0.77;;
53391;SDS011;41667;51.922;8.850;2023-04-03T13:46:51;1.90;;;0.97;;
53391;SDS011;41667;51.922;8.850;2023-04-03T13:49:21;0.90;;;0.90;;
53391;SDS011;41667;51.922;8.850;2023-04-03T13:51:47;1.42;;;0.82;;
53391;SDS011;41667;51.922;8.850;2023-04-03T13:54:22;2.33;;;1.20;;
53391;SDS011;41667;51.922;8.850;2023-04-03T13:56:52;1.95;;;1.00;;
53391;SDS011;41667;51.922;8.850;2023-04-03T14:01:48;2.72;;;0.70;;
53391;SDS011;41667;51.922;8.850;2023-04-03T14:04:19;1.55;;;0.80;;
53391;SDS011;41667;51.922;8.850;2023-04-03T14:06:45;1.05;;;0.98;;
53391;SDS011;41667;51.922;8.850;2023-04-03T14:09:10;0.98;;;0.80;;
53391;SDS011;41667;51.922;8.850;2023-04-03T14:11:35;2.75;;;0.90;;
53391;SDS011;41667;51.922;8.850;2023-04-03T14:14:02;1.52;;;0.77;;
53391;SDS011;41667;51.922;8.850;2023-04-03T14:16:30;1.00;;;0.90;;
53391;SDS011;41667;51.922;8.850;2023-04-03T14:18:55;1.63;;;1.27;;
53391;SDS011;41667;51.922;8.850;2023-04-03T14:21:21;0.90;;;0.65;;
53391;SDS011;41667;51.922;8.850;2023-04-03T14:23:46;3.60;;;1.10;;
53391;SDS011;41667;51.922;8.850;2023-04-03T14:26:12;2.90;;;1.35;;
53391;SDS011;41667;51.922;8.850;2023-04-03T14:28:38;5.68;;;1.25;;
53391;SDS011;41667;51.922;8.850;2023-04-03T14:31:05;0.80;;;0.80;;
53391;SDS011;41667;51.922;8.850;2023-04-03T14:33:30;0.95;;;0.63;;
53391;SDS011;41667;51.922;8.850;2023-04-03T14:35:59;1.67;;;0.90;;
53391;SDS011;41667;51.922;8.850;2023-04-03T14:38:29;1.20;;;1.08;;
53391;SDS011;41667;51.922;8.850;2023-04-03T14:40:55;2.05;;;0.65;;
53391;SDS011;41667;51.922;8.850;2023-04-03T14:43:20;2.42;;;1.00;;
53391;SDS011;41667;51.922;8.850;2023-04-03T14:45:47;4.22;;;1.42;;
53391;SDS011;41667;51.922;8.850;2023-04-03T14:48:16;1.13;;;1.02;;
53391;SDS011;41667;51.922;8.850;2023-04-03T14:50:42;1.50;;;1.38;;
53391;SDS011;41667;51.922;8.850;2023-04-03T14:53:07;1.73;;;0.80;;
53391;SDS011;41667;51.922;8.850;2023-04-03T14:55:32;0.80;;;0.80;;
53391;SDS011;41667;51.922;8.850;2023-04-03T14:57:57;2.65;;;0.63;;
53391;SDS011;41667;51.922;8.850;2023-04-03T15:00:23;1.90;;;1.47;;
53391;SDS011;41667;51.922;8.850;2023-04-03T15:02:48;1.63;;;1.20;;
53391;SDS011;41667;51.922;8.850;2023-04-03T15:05:13;4.17;;;1.50;;
53391;SDS011;41667;51.922;8.850;2023-04-03T15:07:40;1.02;;;0.90;;
53391;SDS011;41667;51.922;8.850;2023-04-03T15:10:14;1.40;;;1.30;;
53391;SDS011;41667;51.922;8.850;2023-04-03T15:12:41;0.88;;;0.88;;
53391;SDS011;41667;51.922;8.850;2023-04-03T15:15:07;1.25;;;1.25;;
53391;SDS011;41667;51.922;8.850;2023-04-03T15:17:32;1.55;;;1.10;;
53391;SDS011;41667;51.922;8.850;2023-04-03T15:19:58;1.50;;;1.13;;
53391;SDS011;41667;51.922;8.850;2023-04-03T15:22:23;2.70;;;0.85;;
53391;SDS011;41667;51.922;8.850;2023-04-03T15:24:48;5.15;;;1.13;;
53391;SDS011;41667;51.922;8.850;2023-04-03T15:27:14;5.40;;;0.93;;
53391;SDS011;41667;51.922;8.850;2023-04-03T15:29:40;2.28;;;0.85;;
53391;SDS011;41667;51.922;8.850;2023-04-03T15:32:06;2.03;;;0.80;;
53391;SDS011;41667;51.922;8.850;2023-04-03T15:34:31;2.53;;;1.05;;
53391;SDS011;41667;51.922;8.850;2023-04-03T15:36:56;1.93;;;0.90;;
53391;SDS011;41667;51.922;8.850;2023-04-03T15:39:22;1.93;;;1.10;;
53391;SDS011;41667;51.922;8.850;2023-04-03T15:41:48;2.97;;;1.00;;